sensor_id;sensor_type;location;lat;lon;timestamp;temperature;humidity
1055;DHT22;516;51.482;7.120;2023-04-24T00:00:33;11.70;99.90
1055;DHT22;516;51.482;7.120;2023-04-24T00:06:21;11.60;99.90
1055;DHT22;516;51.482;7.120;2023-04-24T00:12:11;11.50;99.90
1055;DHT22;516;51.482;7.120;2023-04-24T00:17:59;11.30;99.90
1055;DHT22;516;51.482;7.120;2023-04-24T00:23:48;11.30;99.90
1055;DHT22;516;51.482;7.120;2023-04-24T00:29:36;11.20;99.90
1055;DHT22;516;51.482;7.120;2023-04-24T00:35:23;11.10;99.90
1055;DHT22;516;51.482;7.120;2023-04-24T00:45:14;11.00;99.90
1055;DHT22;516;51.482;7.120;2023-04-24T00:51:02;11.10;99.90
1055;DHT22;516;51.482;7.120;2023-04-24T00:56:52;10.80;99.90
1055;DHT22;516;51.482;7.120;2023-04-24T01:02:40;10.60;99.90
1055;DHT22;516;51.482;7.120;2023-04-24T01:08:30;10.40;99.90
1055;DHT22;516;51.482;7.120;2023-04-24T01:14:18;10.40;99.90
1055;DHT22;516;51.482;7.120;2023-04-24T01:20:06;10.40;99.90
1055;DHT22;516;51.482;7.120;2023-04-24T01:25:55;10.50;99.90
1055;DHT22;516;51.482;7.120;2023-04-24T01:31:42;10.40;99.90
1055;DHT22;516;51.482;7.120;2023-04-24T01:37:30;10.30;99.90
1055;DHT22;516;51.482;7.120;2023-04-24T01:43:09;10.10;99.90
1055;DHT22;516;51.482;7.120;2023-04-24T01:48:59;9.90;99.90
1055;DHT22;516;51.482;7.120;2023-04-24T01:54:47;9.90;99.90
1055;DHT22;516;51.482;7.120;2023-04-24T02:00:35;9.90;99.90
1055;DHT22;516;51.482;7.120;2023-04-24T02:06:23;9.60;99.90
1055;DHT22;516;51.482;7.120;2023-04-24T02:12:11;9.60;99.90
1055;DHT22;516;51.482;7.120;2023-04-24T02:17:59;9.50;99.90
1055;DHT22;516;51.482;7.120;2023-04-24T02:23:47;9.50;99.90
1055;DHT22;516;51.482;7.120;2023-04-24T02:29:35;9.60;99.90
1055;DHT22;516;51.482;7.120;2023-04-24T02:35:22;9.60;99.90
1055;DHT22;516;51.482;7.120;2023-04-24T02:51:09;9.40;99.90
1055;DHT22;516;51.482;7.120;2023-04-24T02:56:57;9.50;99.90
1055;DHT22;516;51.482;7.120;2023-04-24T03:02:45;9.50;99.90
1055;DHT22;516;51.482;7.120;2023-04-24T03:08:32;9.60;99.90
1055;DHT22;516;51.482;7.120;2023-04-24T03:14:20;9.60;99.90
1055;DHT22;516;51.482;7.120;2023-04-24T03:20:09;9.70;99.90
1055;DHT22;516;51.482;7.120;2023-04-24T03:25:57;9.70;99.90
1055;DHT22;516;51.482;7.120;2023-04-24T03:31:45;9.70;99.90
1055;DHT22;516;51.482;7.120;2023-04-24T03:37:32;9.70;99.90
1055;DHT22;516;51.482;7.120;2023-04-24T03:43:16;9.70;99.90
1055;DHT22;516;51.482;7.120;2023-04-24T03:49:04;9.80;99.90
1055;DHT22;516;51.482;7.120;2023-04-24T03:54:52;9.80;99.90
1055;DHT22;516;51.482;7.120;2023-04-24T04:00:40;9.80;99.90
1055;DHT22;516;51.482;7.120;2023-04-24T04:06:28;9.80;99.90
1055;DHT22;516;51.482;7.120;2023-04-24T04:12:15;9.80;99.90
1055;DHT22;516;51.482;7.120;2023-04-24T04:18:03;9.80;99.90
1055;DHT22;516;51.482;7.120;2023-04-24T04:23:33;9.70;99.90
1055;DHT22;516;51.482;7.120;2023-04-24T04:29:20;9.80;99.90
1055;DHT22;516;51.482;7.120;2023-04-24T04:35:08;9.80;99.90
1055;DHT22;516;51.482;7.120;2023-04-24T04:47:22;9.80;99.90
1055;DHT22;516;51.482;7.120;2023-04-24T04:53:10;9.80;99.90
1055;DHT22;516;51.482;7.120;2023-04-24T04:58:58;9.80;99.90
1055;DHT22;516;51.482;7.120;2023-04-24T05:04:46;9.80;99.90
1055;DHT22;516;51.482;7.120;2023-04-24T05:10:34;9.80;99.90
1055;DHT22;516;51.482;7.120;2023-04-24T05:16:24;9.80;99.90
1055;DHT22;516;51.482;7.120;2023-04-24T05:22:12;9.80;99.90
1055;DHT22;516;51.482;7.120;2023-04-24T05:27:59;9.80;99.90
1055;DHT22;516;51.482;7.120;2023-04-24T05:33:39;9.70;99.90
1055;DHT22;516;51.482;7.120;2023-04-24T05:39:27;9.60;99.90
1055;DHT22;516;51.482;7.120;2023-04-24T05:48:37;9.00;99.90
1055;DHT22;516;51.482;7.120;2023-04-24T05:54:25;9.00;99.90
1055;DHT22;516;51.482;7.120;2023-04-24T06:00:13;8.80;99.90
1055;DHT22;516;51.482;7.120;2023-04-24T06:06:01;8.80;99.90
1055;DHT22;516;51.482;7.120;2023-04-24T06:11:49;8.90;99.90
1055;DHT22;516;51.482;7.120;2023-04-24T06:17:37;9.00;99.90
1055;DHT22;516;51.482;7.120;2023-04-24T06:23:25;9.00;99.90
1055;DHT22;516;51.482;7.120;2023-04-24T06:29:13;9.10;99.90
1055;DHT22;516;51.482;7.120;2023-04-24T06:35:01;9.10;99.90
1055;DHT22;516;51.482;7.120;2023-04-24T06:40:48;9.00;99.90
1055;DHT22;516;51.482;7.120;2023-04-24T06:46:33;9.00;99.90
1055;DHT22;516;51.482;7.120;2023-04-24T06:52:21;9.50;99.90
1055;DHT22;516;51.482;7.120;2023-04-24T06:58:08;9.30;99.90
1055;DHT22;516;51.482;7.120;2023-04-24T07:03:56;9.20;99.90
1055;DHT22;516;51.482;7.120;2023-04-24T07:09:44;9.30;99.90
1055;DHT22;516;51.482;7.120;2023-04-24T07:15:33;9.10;99.90
1055;DHT22;516;51.482;7.120;2023-04-24T07:21:21;9.00;99.90
1055;DHT22;516;51.482;7.120;2023-04-24T07:24:15;9.20;99.90
1055;DHT22;516;51.482;7.120;2023-04-24T07:26:41;9.20;99.90
1055;DHT22;516;51.482;7.120;2023-04-24T07:32:29;9.30;99.90
1055;DHT22;516;51.482;7.120;2023-04-24T07:38:16;9.20;99.90
1055;DHT22;516;51.482;7.120;2023-04-24T07:44:03;9.10;99.90
1055;DHT22;516;51.482;7.120;2023-04-24T07:49:51;9.20;99.90
1055;DHT22;516;51.482;7.120;2023-04-24T07:55:39;9.10;99.90
1055;DHT22;516;51.482;7.120;2023-04-24T08:01:27;9.40;99.90
1055;DHT22;516;51.482;7.120;2023-04-24T08:07:15;9.10;99.90
1055;DHT22;516;51.482;7.120;2023-04-24T08:13:03;8.70;99.90
1055;DHT22;516;51.482;7.120;2023-04-24T08:18:51;9.00;99.90
1055;DHT22;516;51.482;7.120;2023-04-24T08:24:39;8.90;99.90
1055;DHT22;516;51.482;7.120;2023-04-24T08:30:27;8.60;99.90
1055;DHT22;516;51.482;7.120;2023-04-24T08:36:13;8.40;99.90
1055;DHT22;516;51.482;7.120;2023-04-24T08:42:01;8.40;99.90
1055;DHT22;516;51.482;7.120;2023-04-24T08:51:14;8.00;99.90
1055;DHT22;516;51.482;7.120;2023-04-24T08:57:03;8.00;99.90
1055;DHT22;516;51.482;7.120;2023-04-24T09:02:53;8.10;99.90
1055;DHT22;516;51.482;7.120;2023-04-24T09:08:41;8.50;99.90
1055;DHT22;516;51.482;7.120;2023-04-24T09:14:30;8.80;99.90
1055;DHT22;516;51.482;7.120;2023-04-24T09:20:19;9.00;99.90
1055;DHT22;516;51.482;7.120;2023-04-24T09:26:09;9.00;99.90
1055;DHT22;516;51.482;7.120;2023-04-24T09:31:57;9.00;99.90
1055;DHT22;516;51.482;7.120;2023-04-24T09:37:46;8.90;99.90
1055;DHT22;516;51.482;7.120;2023-04-24T09:43:35;8.70;99.90
1055;DHT22;516;51.482;7.120;2023-04-24T09:46:38;8.70;99.90
1055;DHT22;516;51.482;7.120;2023-04-24T09:49:14;8.80;99.90
1055;DHT22;516;51.482;7.120;2023-04-24T09:55:11;8.80;99.90
1055;DHT22;516;51.482;7.120;2023-04-24T09:58:14;8.80;99.90
1055;DHT22;516;51.482;7.120;2023-04-24T10:00:40;8.70;99.90
1055;DHT22;516;51.482;7.120;2023-04-24T10:06:33;8.60;99.90
1055;DHT22;516;51.482;7.120;2023-04-24T10:12:22;8.50;99.90
1055;DHT22;516;51.482;7.120;2023-04-24T10:17:51;8.50;99.90
1055;DHT22;516;51.482;7.120;2023-04-24T10:23:39;8.60;99.90
1055;DHT22;516;51.482;7.120;2023-04-24T10:29:29;8.70;99.90
1055;DHT22;516;51.482;7.120;2023-04-24T10:35:19;8.80;99.90
1055;DHT22;516;51.482;7.120;2023-04-24T10:41:10;8.80;99.90
1055;DHT22;516;51.482;7.120;2023-04-24T11:09:59;8.90;99.90
1055;DHT22;516;51.482;7.120;2023-04-24T11:22:14;9.10;99.90
1055;DHT22;516;51.482;7.120;2023-04-24T11:28:24;9.20;99.90
1055;DHT22;516;51.482;7.120;2023-04-24T11:34:13;9.80;99.90
1055;DHT22;516;51.482;7.120;2023-04-24T11:40:02;10.80;99.90
1055;DHT22;516;51.482;7.120;2023-04-24T11:45:50;10.50;99.90
1055;DHT22;516;51.482;7.120;2023-04-24T11:51:38;9.80;99.90
1055;DHT22;516;51.482;7.120;2023-04-24T12:00:43;9.30;99.90
1055;DHT22;516;51.482;7.120;2023-04-24T12:06:32;9.30;99.90
1055;DHT22;516;51.482;7.120;2023-04-24T12:12:20;9.90;99.90
1055;DHT22;516;51.482;7.120;2023-04-24T12:18:11;10.50;99.90
1055;DHT22;516;51.482;7.120;2023-04-24T12:23:59;10.60;99.90
1055;DHT22;516;51.482;7.120;2023-04-24T12:29:56;10.90;99.90
1055;DHT22;516;51.482;7.120;2023-04-24T12:35:44;10.50;99.90
1055;DHT22;516;51.482;7.120;2023-04-24T12:41:32;10.20;99.90
1055;DHT22;516;51.482;7.120;2023-04-24T12:47:20;10.00;99.90
1055;DHT22;516;51.482;7.120;2023-04-24T12:50:25;9.90;99.90
1055;DHT22;516;51.482;7.120;2023-04-24T12:52:51;9.90;99.90
1055;DHT22;516;51.482;7.120;2023-04-24T12:58:38;10.00;99.90
1055;DHT22;516;51.482;7.120;2023-04-24T13:04:26;10.60;99.90
1055;DHT22;516;51.482;7.120;2023-04-24T13:10:14;11.20;99.90
1055;DHT22;516;51.482;7.120;2023-04-24T13:16:01;11.10;99.90
1055;DHT22;516;51.482;7.120;2023-04-24T13:21:49;10.70;99.90
1055;DHT22;516;51.482;7.120;2023-04-24T13:27:38;10.90;99.90
1055;DHT22;516;51.482;7.120;2023-04-24T13:33:26;10.70;99.90
1055;DHT22;516;51.482;7.120;2023-04-24T13:39:14;10.60;99.90
1055;DHT22;516;51.482;7.120;2023-04-24T13:45:01;10.70;99.90
1055;DHT22;516;51.482;7.120;2023-04-24T14:00:44;10.50;99.90
1055;DHT22;516;51.482;7.120;2023-04-24T14:06:33;10.90;99.40
1055;DHT22;516;51.482;7.120;2023-04-24T14:12:20;11.70;90.60
1055;DHT22;516;51.482;7.120;2023-04-24T14:18:08;12.20;87.40
1055;DHT22;516;51.482;7.120;2023-04-24T14:23:56;11.50;78.60
1055;DHT22;516;51.482;7.120;2023-04-24T14:29:43;11.30;89.10
1055;DHT22;516;51.482;7.120;2023-04-24T14:35:32;11.10;86.70
1055;DHT22;516;51.482;7.120;2023-04-24T14:41:21;10.90;89.50
1055;DHT22;516;51.482;7.120;2023-04-24T14:47:09;10.70;92.70
1055;DHT22;516;51.482;7.120;2023-04-24T14:52:54;10.50;94.20
1055;DHT22;516;51.482;7.120;2023-04-24T14:58:42;10.10;99.90
1055;DHT22;516;51.482;7.120;2023-04-24T15:04:30;9.90;99.90
1055;DHT22;516;51.482;7.120;2023-04-24T15:10:18;9.70;99.90
1055;DHT22;516;51.482;7.120;2023-04-24T15:16:06;9.80;99.90
1055;DHT22;516;51.482;7.120;2023-04-24T15:21:53;10.30;99.90
1055;DHT22;516;51.482;7.120;2023-04-24T15:27:43;10.50;99.90
1055;DHT22;516;51.482;7.120;2023-04-24T15:33:30;11.20;99.90
1055;DHT22;516;51.482;7.120;2023-04-24T15:39:22;11.50;99.90
1055;DHT22;516;51.482;7.120;2023-04-24T15:45:10;11.50;99.90
1055;DHT22;516;51.482;7.120;2023-04-24T15:54:58;11.10;99.90
1055;DHT22;516;51.482;7.120;2023-04-24T16:00:45;12.00;99.90
1055;DHT22;516;51.482;7.120;2023-04-24T16:06:14;11.10;95.90
1055;DHT22;516;51.482;7.120;2023-04-24T16:12:01;11.30;94.60
1055;DHT22;516;51.482;7.120;2023-04-24T16:17:49;11.10;98.30
1055;DHT22;516;51.482;7.120;2023-04-24T16:23:37;12.00;88.00
1055;DHT22;516;51.482;7.120;2023-04-24T16:29:25;11.60;83.30
1055;DHT22;516;51.482;7.120;2023-04-24T16:35:13;11.10;89.70
1055;DHT22;516;51.482;7.120;2023-04-24T16:41:01;10.80;80.20
1055;DHT22;516;51.482;7.120;2023-04-24T16:46:49;10.80;82.60
1055;DHT22;516;51.482;7.120;2023-04-24T16:52:37;10.70;83.70
1055;DHT22;516;51.482;7.120;2023-04-24T16:58:25;10.60;89.10
1055;DHT22;516;51.482;7.120;2023-04-24T17:04:12;10.60;91.40
1055;DHT22;516;51.482;7.120;2023-04-24T17:10:00;10.40;98.20
1055;DHT22;516;51.482;7.120;2023-04-24T17:15:48;9.60;99.90
1055;DHT22;516;51.482;7.120;2023-04-24T17:21:35;9.20;99.90
1055;DHT22;516;51.482;7.120;2023-04-24T17:27:23;9.00;99.90
1055;DHT22;516;51.482;7.120;2023-04-24T17:33:11;9.00;99.90
1055;DHT22;516;51.482;7.120;2023-04-24T17:38:59;9.10;99.90
1055;DHT22;516;51.482;7.120;2023-04-24T17:44:47;9.10;99.90
1055;DHT22;516;51.482;7.120;2023-04-24T18:00:43;9.60;99.90
1055;DHT22;516;51.482;7.120;2023-04-24T18:06:31;9.40;99.90
1055;DHT22;516;51.482;7.120;2023-04-24T18:12:19;9.30;99.90
1055;DHT22;516;51.482;7.120;2023-04-24T18:18:07;9.10;99.90
1055;DHT22;516;51.482;7.120;2023-04-24T18:23:55;9.00;99.90
1055;DHT22;516;51.482;7.120;2023-04-24T18:29:46;8.90;99.90
1055;DHT22;516;51.482;7.120;2023-04-24T18:35:34;9.00;99.90
1055;DHT22;516;51.482;7.120;2023-04-24T18:41:22;8.90;99.90
1055;DHT22;516;51.482;7.120;2023-04-24T18:47:10;8.50;99.90
1055;DHT22;516;51.482;7.120;2023-04-24T18:52:52;8.50;99.90
1055;DHT22;516;51.482;7.120;2023-04-24T18:58:39;8.40;99.90
1055;DHT22;516;51.482;7.120;2023-04-24T19:04:30;8.40;99.90
1055;DHT22;516;51.482;7.120;2023-04-24T19:10:18;8.40;99.90
1055;DHT22;516;51.482;7.120;2023-04-24T19:16:06;8.20;99.90
1055;DHT22;516;51.482;7.120;2023-04-24T19:21:54;8.10;99.90
1055;DHT22;516;51.482;7.120;2023-04-24T19:27:42;8.10;99.90
1055;DHT22;516;51.482;7.120;2023-04-24T19:33:29;8.00;99.90
1055;DHT22;516;51.482;7.120;2023-04-24T19:39:17;7.80;99.90
1055;DHT22;516;51.482;7.120;2023-04-24T19:45:05;7.80;99.90
1055;DHT22;516;51.482;7.120;2023-04-24T19:54:55;7.90;99.90
1055;DHT22;516;51.482;7.120;2023-04-24T20:00:43;7.80;99.90
1055;DHT22;516;51.482;7.120;2023-04-24T20:06:31;7.60;99.90
1055;DHT22;516;51.482;7.120;2023-04-24T20:12:19;7.90;99.90
1055;DHT22;516;51.482;7.120;2023-04-24T20:18:07;8.00;99.90
1055;DHT22;516;51.482;7.120;2023-04-24T20:23:54;7.90;99.90
1055;DHT22;516;51.482;7.120;2023-04-24T20:29:42;7.80;99.90
1055;DHT22;516;51.482;7.120;2023-04-24T20:35:30;7.80;99.90
1055;DHT22;516;51.482;7.120;2023-04-24T20:41:18;7.60;99.90
1055;DHT22;516;51.482;7.120;2023-04-24T20:47:06;7.60;99.90
1055;DHT22;516;51.482;7.120;2023-04-24T20:52:52;7.60;99.90
1055;DHT22;516;51.482;7.120;2023-04-24T20:58:40;7.60;99.90
1055;DHT22;516;51.482;7.120;2023-04-24T21:04:27;7.40;99.90
1055;DHT22;516;51.482;7.120;2023-04-24T21:10:15;7.30;99.90
1055;DHT22;516;51.482;7.120;2023-04-24T21:16:02;7.30;99.90
1055;DHT22;516;51.482;7.120;2023-04-24T21:21:50;7.10;99.90
1055;DHT22;516;51.482;7.120;2023-04-24T21:27:38;7.00;99.90
1055;DHT22;516;51.482;7.120;2023-04-24T21:33:25;6.80;99.90
1055;DHT22;516;51.482;7.120;2023-04-24T21:39:13;6.90;99.90
1055;DHT22;516;51.482;7.120;2023-04-24T21:45:01;6.80;99.90
1055;DHT22;516;51.482;7.120;2023-04-24T21:50:30;7.00;99.90
1055;DHT22;516;51.482;7.120;2023-04-24T21:52:56;6.90;99.90
1055;DHT22;516;51.482;7.120;2023-04-24T21:55:21;7.00;99.90
1055;DHT22;516;51.482;7.120;2023-04-24T22:01:09;7.00;99.90
1055;DHT22;516;51.482;7.120;2023-04-24T22:06:57;6.90;99.90
1055;DHT22;516;51.482;7.120;2023-04-24T22:12:46;6.80;99.90
1055;DHT22;516;51.482;7.120;2023-04-24T22:18:34;6.60;99.90
1055;DHT22;516;51.482;7.120;2023-04-24T22:24:22;6.90;99.90
1055;DHT22;516;51.482;7.120;2023-04-24T22:30:10;7.00;99.90
1055;DHT22;516;51.482;7.120;2023-04-24T22:35:58;6.90;99.90
1055;DHT22;516;51.482;7.120;2023-04-24T22:41:46;6.80;99.90
1055;DHT22;516;51.482;7.120;2023-04-24T22:47:34;6.90;99.90
1055;DHT22;516;51.482;7.120;2023-04-24T23:03:16;7.00;99.90
1055;DHT22;516;51.482;7.120;2023-04-24T23:09:03;7.00;99.90
1055;DHT22;516;51.482;7.120;2023-04-24T23:14:51;7.00;99.90
1055;DHT22;516;51.482;7.120;2023-04-24T23:20:39;6.90;99.90
1055;DHT22;516;51.482;7.120;2023-04-24T23:26:27;6.70;99.90
1055;DHT22;516;51.482;7.120;2023-04-24T23:32:14;6.70;99.90
1055;DHT22;516;51.482;7.120;2023-04-24T23:38:02;6.70;99.90
1055;DHT22;516;51.482;7.120;2023-04-24T23:43:49;6.80;99.90
1055;DHT22;516;51.482;7.120;2023-04-24T23:49:37;6.90;99.90
1055;DHT22;516;51.482;7.120;2023-04-24T23:55:22;7.00;99.90
